Terminal Aerodrome Forecast
Issued by NWS

Home | Current Version | Previous Version | Graphics & Text | Print | Product List | Glossary On
Versions: 1 2 3 4 5 6 7 8 9 10 11 12 13 14
000
FTUS45 KGGW 282300
TAFSDY
TAF
KSDY 282320Z 2900/2924 VRB03KT P6SM SCT030
     FM290900 VRB03KT P6SM BKN100
     FM291800 26010G20KT P6SM BKN080
      AMD LTD TO CLD VIS AND WIND=

USA.gov is the U.S. government's official web portal to all federal, state and local government web resources and services.